Gamle Salten — LCQT — position and weather

sailwx.info

Track history (hours):
 
Tides and Currents Weather Stations Pressure Air Temp Water Temp Dewpoint Dewpoint Depression Visibility Wind Speed Wind Dir Waves Ship Positions

Gamle Salten

Last reported at 2015-Aug-13 17:19 UTC. Time now 2015-Sep-02 04:27 UTC.
Position N 66°17' E 012°56'.
Warning: this ship's position is 19 days out of date.

Length 48 m; draft 5 m.

Type: Passenger vessel. MMSI: 258178000.

Date/timePositionNaut miles runAvg speedWind from/ knotsBaromVisibWave heightAir tempDewpointWater temp
2015-Aug-13 17:19N 66°17' E 012°56'7 9.4
2015-Aug-13 16:33N 66°24' E 012°59'28 6.8
2015-Aug-13 12:30N 66°51' E 013°18'8 7.5
2015-Aug-13 11:28N 66°57' E 013°29'8 8.5
2015-Aug-13 10:33N 67°02' E 013°45'9 9.0
2015-Aug-13 09:33N 67°08' E 014°01'3 3.1
2015-Aug-13 08:33N 67°11' E 014°05'8 7.9
2015-Aug-13 07:33N 67°16' E 014°20'1 1.3
2015-Aug-13 06:31N 67°17' E 014°22'0 0.0
2015-Aug-13 05:33N 67°17' E 014°22'0 0.0
2015-Aug-13 04:32N 67°17' E 014°22'0 0.0
2015-Aug-13 03:31N 67°17' E 014°22'0 0.0
2015-Aug-13 02:31N 67°17' E 014°22'0 0.0
2015-Aug-13 01:33N 67°17' E 014°22'0 0.0
2015-Aug-13 00:33N 67°17' E 014°22'0 0.0
2015-Aug-12 23:32N 67°17' E 014°22'0 0.0
2015-Aug-12 22:32N 67°17' E 014°22'0 0.0
2015-Aug-12 21:31N 67°17' E 014°22'0 0.0
2015-Aug-12 20:33N 67°17' E 014°22'0 0.0
2015-Aug-12 19:33N 67°17' E 014°22'0 0.0
2015-Aug-12 18:32N 67°17' E 014°22'0 0.0
2015-Aug-12 17:32N 67°17' E 014°22'0 0.0
2015-Aug-12 16:31N 67°17' E 014°22'0 0.0
2015-Aug-12 15:31N 67°17' E 014°22'0 0.0
2015-Aug-12 14:33N 67°17' E 014°22'0 0.0
2015-Aug-12 13:32N 67°17' E 014°22'0 0.0
2015-Aug-12 12:32N 67°17' E 014°22'0 0.0
2015-Aug-12 11:32N 67°17' E 014°22'0 0.0
2015-Aug-12 10:32N 67°17' E 014°22'0 0.0
2015-Aug-12 09:33N 67°17' E 014°22'0 0.0
2015-Aug-12 08:34N 67°17' E 014°22'0 0.0
2015-Aug-12 07:31N 67°17' E 014°22'0 0.0
2015-Aug-12 06:31N 67°17' E 014°22'0 0.0
2015-Aug-12 05:33N 67°17' E 014°22'0 0.0
2015-Aug-12 04:32N 67°17' E 014°22'0 0.0
2015-Aug-12 03:32N 67°17' E 014°22'0 0.0
2015-Aug-12 02:31N 67°17' E 014°22'0 0.0
2015-Aug-12 01:30N 67°17' E 014°22'0 0.0
2015-Aug-12 00:33N 67°17' E 014°22'0 0.0
2015-Aug-11 23:32N 67°17' E 014°22'0 0.0
2015-Aug-11 22:32N 67°17' E 014°22'0 0.0
2015-Aug-11 21:31N 67°17' E 014°22'0 0.0
2015-Aug-11 20:33N 67°17' E 014°22'0 0.0
2015-Aug-11 19:33N 67°17' E 014°22'0 0.0
2015-Aug-11 18:32N 67°17' E 014°22'0 0.0
2015-Aug-11 17:32N 67°17' E 014°22'0 0.0
2015-Aug-11 16:33N 67°17' E 014°22'0 0.0
2015-Aug-11 15:32N 67°17' E 014°22'0 0.0
2015-Aug-11 14:32N 67°17' E 014°22'0 0.0
2015-Aug-11 13:31N 67°17' E 014°22'0 0.0
2015-Aug-11 12:31N 67°17' E 014°22'0 0.0
2015-Aug-11 11:33N 67°17' E 014°22'0 0.0
2015-Aug-11 10:33N 67°17' E 014°22'0 0.0
2015-Aug-11 09:32N 67°17' E 014°22'0 0.0
2015-Aug-11 08:32N 67°17' E 014°22'0 0.0
2015-Aug-11 07:31N 67°17' E 014°22'0 0.0
2015-Aug-11 06:32N 67°17' E 014°22'0 0.0
2015-Aug-11 05:31N 67°17' E 014°22'0 0.0
2015-Aug-11 04:33N 67°17' E 014°22'0 0.0
2015-Aug-11 03:31N 67°17' E 014°22'0 0.0
2015-Aug-11 02:33N 67°17' E 014°22'0 0.0
2015-Aug-11 01:33N 67°17' E 014°22'0 0.0
2015-Aug-11 00:32N 67°17' E 014°22'0 0.0
2015-Aug-10 23:31N 67°17' E 014°22'0 0.0
2015-Aug-10 22:31N 67°17' E 014°22'0 0.0
2015-Aug-10 21:33N 67°17' E 014°22'0 0.0
2015-Aug-10 20:33N 67°17' E 014°22'0 0.0
2015-Aug-10 19:32N 67°17' E 014°22'0 0.0
2015-Aug-10 18:31N 67°17' E 014°22'0 0.0
2015-Aug-10 17:31N 67°17' E 014°22'0 0.0
2015-Aug-10 16:32N 67°17' E 014°22'0 0.0
2015-Aug-10 15:31N 67°17' E 014°22'0 0.0
2015-Aug-10 14:32N 67°17' E 014°22'0 0.0
2015-Aug-10 13:31N 67°17' E 014°22'0 0.0
2015-Aug-10 12:30N 67°17' E 014°22'0 0.0
2015-Aug-10 11:32N 67°17' E 014°22'0 0.0
2015-Aug-10 10:32N 67°17' E 014°22'0 0.0
2015-Aug-10 09:32N 67°17' E 014°22'0 0.0
2015-Aug-10 08:31N 67°17' E 014°22'0 0.0
2015-Aug-10 07:31N 67°17' E 014°22'0 0.0
2015-Aug-10 06:33N 67°17' E 014°22'0 0.0
2015-Aug-10 05:32N 67°17' E 014°22'0 0.0
2015-Aug-10 04:32N 67°17' E 014°22'0 0.0
2015-Aug-10 03:31N 67°17' E 014°22'0 0.0
2015-Aug-10 02:31N 67°17' E 014°22'0 0.0
2015-Aug-10 01:33N 67°17' E 014°22'0 0.0
2015-Aug-10 00:33N 67°17' E 014°22'0 0.0
2015-Aug-09 23:32N 67°17' E 014°22'0 0.0
2015-Aug-09 22:31N 67°17' E 014°22'0 0.0
2015-Aug-09 21:31N 67°17' E 014°22'0 0.0
2015-Aug-09 20:33N 67°17' E 014°22'0 0.0
2015-Aug-09 19:33N 67°17' E 014°22'0 0.0
2015-Aug-09 18:32N 67°17' E 014°22'0 0.0
2015-Aug-09 17:31N 67°17' E 014°22'0 0.0
2015-Aug-09 16:31N 67°17' E 014°22'0 0.0
2015-Aug-09 15:33N 67°17' E 014°22'0 0.0
2015-Aug-09 14:30N 67°17' E 014°22'0 0.0
2015-Aug-09 13:32N 67°17' E 014°22'0 0.0
2015-Aug-09 12:31N 67°17' E 014°22'0 0.0
2015-Aug-09 11:31N 67°17' E 014°22'0 0.0
2015-Aug-09 10:33N 67°17' E 014°22'0 0.0
2015-Aug-09 09:33N 67°17' E 014°22'0 0.0
2015-Aug-09 08:32N 67°17' E 014°22'0 0.0
2015-Aug-09 07:31N 67°17' E 014°22'0 0.0
2015-Aug-09 06:31N 67°17' E 014°22'0 0.0
2015-Aug-09 05:33N 67°17' E 014°22'0 0.0
2015-Aug-09 04:33N 67°17' E 014°22'0 0.0
2015-Aug-09 03:32N 67°17' E 014°22'0 0.0
2015-Aug-09 02:31N 67°17' E 014°22'0 0.0
2015-Aug-09 01:31N 67°17' E 014°22'0 0.0
2015-Aug-09 00:33N 67°17' E 014°22'0 0.0
2015-Aug-08 23:33N 67°17' E 014°22'0 0.0
2015-Aug-08 22:32N 67°17' E 014°22'0 0.0
2015-Aug-08 21:31N 67°17' E 014°22'0 0.0
2015-Aug-08 20:31N 67°17' E 014°22'0 0.0
2015-Aug-08 19:33N 67°17' E 014°22'0 0.0
2015-Aug-08 18:33N 67°17' E 014°22'0 0.0
2015-Aug-08 17:32N 67°17' E 014°22'0 0.0
2015-Aug-08 16:31N 67°17' E 014°22'0 0.0
2015-Aug-08 15:25N 67°17' E 014°22'0 0.0
2015-Aug-08 14:33N 67°17' E 014°22'0 0.0
2015-Aug-08 13:33N 67°17' E 014°22'0 0.0
2015-Aug-08 12:32N 67°17' E 014°22'0 0.0
2015-Aug-08 11:28N 67°17' E 014°22'0 0.0
2015-Aug-08 10:28N 67°17' E 014°22'0 0.0
2015-Aug-08 09:33N 67°17' E 014°22'0 0.0
2015-Aug-08 08:33N 67°17' E 014°22'0 0.0
2015-Aug-08 07:32N 67°17' E 014°22'0 0.0
2015-Aug-08 06:32N 67°17' E 014°22'0 0.0
2015-Aug-08 05:31N 67°17' E 014°22'0 0.0
2015-Aug-08 04:33N 67°17' E 014°22'0 0.0
2015-Aug-08 03:33N 67°17' E 014°22'0 0.0
2015-Aug-08 02:32N 67°17' E 014°22'0 0.0
2015-Aug-08 01:31N 67°17' E 014°22'0 0.0
2015-Aug-08 00:31N 67°17' E 014°22'0 0.0
2015-Aug-07 23:27N 67°17' E 014°22'0 0.0
2015-Aug-07 22:33N 67°17' E 014°22'0 0.0
2015-Aug-07 21:32N 67°17' E 014°22'0 0.0
2015-Aug-07 20:32N 67°17' E 014°22'0 0.0
2015-Aug-07 19:31N 67°17' E 014°22'0 0.0
2015-Aug-07 18:33N 67°17' E 014°22'0 0.0
2015-Aug-07 17:33N 67°17' E 014°22'0 0.0
2015-Aug-07 16:32N 67°17' E 014°22'0 0.0
2015-Aug-07 15:32N 67°17' E 014°22'0 0.0
2015-Aug-07 14:31N 67°17' E 014°22'0 0.0
2015-Aug-07 13:33N 67°17' E 014°22'0 0.0
2015-Aug-07 12:27N 67°17' E 014°22'0 0.0
2015-Aug-07 11:32N 67°17' E 014°22'0 0.0
2015-Aug-07 10:32N 67°17' E 014°22'0 0.0
2015-Aug-07 09:31N 67°17' E 014°22'0 0.0
2015-Aug-07 08:33N 67°17' E 014°22'0 0.0
2015-Aug-07 07:33N 67°17' E 014°22'0 0.0
2015-Aug-07 06:32N 67°17' E 014°22'0 0.0
2015-Aug-07 05:32N 67°17' E 014°22'0 0.0
2015-Aug-07 04:31N 67°17' E 014°22'0 0.0
2015-Aug-07 03:33N 67°17' E 014°22'0 0.0
2015-Aug-07 02:33N 67°17' E 014°22'0 0.0
2015-Aug-07 01:32N 67°17' E 014°22'0 0.0
2015-Aug-07 00:32N 67°17' E 014°22'0 0.0
2015-Aug-06 23:31N 67°17' E 014°22'0 0.0
2015-Aug-06 22:33N 67°17' E 014°22'0 0.0
2015-Aug-06 21:33N 67°17' E 014°22'0 0.0
2015-Aug-06 20:32N 67°17' E 014°22'0 0.0
2015-Aug-06 19:32N 67°17' E 014°22'0 0.0
2015-Aug-06 18:31N 67°17' E 014°22'0 0.0
2015-Aug-06 17:31N 67°17' E 014°22'0 0.0
2015-Aug-06 16:33N 67°17' E 014°22'0 0.0
2015-Aug-06 15:32N 67°17' E 014°22'0 0.0
2015-Aug-06 14:32N 67°17' E 014°22'0 0.0
2015-Aug-06 13:31N 67°17' E 014°22'0 0.0
2015-Aug-06 12:31N 67°17' E 014°22'0 0.0
2015-Aug-06 11:33N 67°17' E 014°22'0 0.0
2015-Aug-06 10:32N 67°17' E 014°22'0 0.0
2015-Aug-06 09:32N 67°17' E 014°22'0 0.0
2015-Aug-06 08:31N 67°17' E 014°22'0 0.0
2015-Aug-06 07:34N 67°17' E 014°22'0 0.0
2015-Aug-06 06:33N 67°17' E 014°22'0 0.0
2015-Aug-06 05:32N 67°17' E 014°22'0 0.0
2015-Aug-06 04:32N 67°17' E 014°22'0 0.0
2015-Aug-06 03:31N 67°17' E 014°22'0 0.0
2015-Aug-06 02:33N 67°17' E 014°22'0 0.0
2015-Aug-06 01:33N 67°17' E 014°22'0 0.0
2015-Aug-06 00:32N 67°17' E 014°22'0 0.0
2015-Aug-05 23:32N 67°17' E 014°22'0 0.0
2015-Aug-05 22:31N 67°17' E 014°22'0 0.0
2015-Aug-05 21:30N 67°17' E 014°22'0 0.0
2015-Aug-05 20:33N 67°17' E 014°22'0 0.0
2015-Aug-05 19:29N 67°17' E 014°22'0 0.0
2015-Aug-05 18:32N 67°17' E 014°22'0 0.0
2015-Aug-05 17:31N 67°17' E 014°22'0 0.0
2015-Aug-05 16:34N 67°17' E 014°22'0 0.0
2015-Aug-05 15:33N 67°17' E 014°22'0 0.0
2015-Aug-05 14:32N 67°17' E 014°22'0 0.0
2015-Aug-05 13:32N 67°17' E 014°22'0 0.0
2015-Aug-05 12:31N 67°17' E 014°22'0 0.0
2015-Aug-05 11:31N 67°17' E 014°22'0 0.0
2015-Aug-05 10:33N 67°17' E 014°22'0 0.0
2015-Aug-05 09:32N 67°17' E 014°22'0 0.0
2015-Aug-05 08:32N 67°17' E 014°22'0 0.0
2015-Aug-05 07:31N 67°17' E 014°22'0 0.0
2015-Aug-05 06:31N 67°17' E 014°22'0 0.0
2015-Aug-05 05:33N 67°17' E 014°22'0 0.0
2015-Aug-05 04:32N 67°17' E 014°22'0 0.0
2015-Aug-05 03:32N 67°17' E 014°22'0 0.0
2015-Aug-05 02:31N 67°17' E 014°22'0 0.0
2015-Aug-05 01:31N 67°17' E 014°22'0 0.0
2015-Aug-05 00:33N 67°17' E 014°22'0 0.0
2015-Aug-04 23:32N 67°17' E 014°22'0 0.0
2015-Aug-04 22:32N 67°17' E 014°22'0 0.0
2015-Aug-04 21:31N 67°17' E 014°22'0 0.0
2015-Aug-04 20:31N 67°17' E 014°22'0 0.0
2015-Aug-04 19:33N 67°17' E 014°22'0 0.0
2015-Aug-04 18:32N 67°17' E 014°22'0 0.0
2015-Aug-04 17:32N 67°17' E 014°22'0 0.0
2015-Aug-04 16:31N 67°17' E 014°22'0 0.0
2015-Aug-04 15:31N 67°17' E 014°22'0 0.0
2015-Aug-04 14:33N 67°17' E 014°22'0 0.0
2015-Aug-04 13:32N 67°17' E 014°22'0 0.0
2015-Aug-04 12:32N 67°17' E 014°22'0 0.0
2015-Aug-04 11:31N 67°17' E 014°22'0 0.0
2015-Aug-04 10:31N 67°17' E 014°22'0 0.0
2015-Aug-04 09:33N 67°17' E 014°22'0 0.0
2015-Aug-04 08:33N 67°17' E 014°22'0 0.0
2015-Aug-04 07:32N 67°17' E 014°22'0 0.0
2015-Aug-04 06:31N 67°17' E 014°22'0 0.0
2015-Aug-04 05:31N 67°17' E 014°22'0 0.0
2015-Aug-04 04:33N 67°17' E 014°22'0 0.0
2015-Aug-04 03:30N 67°17' E 014°22'0 0.0
2015-Aug-04 02:26N 67°17' E 014°22'0 0.0
2015-Aug-04 01:31N 67°17' E 014°22'0 0.0
2015-Aug-04 00:31N 67°17' E 014°22'0 0.0
2015-Aug-03 23:33N 67°17' E 014°22'0 0.0
2015-Aug-03 22:27N 67°17' E 014°22'0 0.0
2015-Aug-03 21:29N 67°17' E 014°22'0 0.0
2015-Aug-03 20:31N 67°17' E 014°22'0 0.0
2015-Aug-03 19:31N 67°17' E 014°22'0 0.0
2015-Aug-03 18:33N 67°17' E 014°22'0 0.0
2015-Aug-03 17:30N 67°17' E 014°22'  
Track history (hours):
 
Tides and Currents Weather Stations Pressure Air Temp Water Temp Dewpoint Dewpoint Depression Visibility Wind Speed Wind Dir Waves Ship Positions

Gamle Salten

Last reported at 2015-Aug-13 17:19 UTC. Time now 2015-Sep-02 04:27 UTC.
Position N 66°17' E 012°56'.
Warning: this ship's position is 19 days out of date.

Length 48 m; draft 5 m.

Type: Passenger vessel. MMSI: 258178000.

Date/timePositionNaut miles runAvg speedWind from/ knotsBaromVisibWave heightAir tempDewpointWater temp
2015-Aug-13 17:19N 66°17' E 012°56'7 9.4
2015-Aug-13 16:33N 66°24' E 012°59'28 6.8
2015-Aug-13 12:30N 66°51' E 013°18'8 7.5
2015-Aug-13 11:28N 66°57' E 013°29'8 8.5
2015-Aug-13 10:33N 67°02' E 013°45'9 9.0
2015-Aug-13 09:33N 67°08' E 014°01'3 3.1
2015-Aug-13 08:33N 67°11' E 014°05'8 7.9
2015-Aug-13 07:33N 67°16' E 014°20'1 1.3
2015-Aug-13 06:31N 67°17' E 014°22'0 0.0
2015-Aug-13 05:33N 67°17' E 014°22'0 0.0
2015-Aug-13 04:32N 67°17' E 014°22'0 0.0
2015-Aug-13 03:31N 67°17' E 014°22'0 0.0
2015-Aug-13 02:31N 67°17' E 014°22'0 0.0
2015-Aug-13 01:33N 67°17' E 014°22'0 0.0
2015-Aug-13 00:33N 67°17' E 014°22'0 0.0
2015-Aug-12 23:32N 67°17' E 014°22'0 0.0
2015-Aug-12 22:32N 67°17' E 014°22'0 0.0
2015-Aug-12 21:31N 67°17' E 014°22'0 0.0
2015-Aug-12 20:33N 67°17' E 014°22'0 0.0
2015-Aug-12 19:33N 67°17' E 014°22'0 0.0
2015-Aug-12 18:32N 67°17' E 014°22'0 0.0
2015-Aug-12 17:32N 67°17' E 014°22'0 0.0
2015-Aug-12 16:31N 67°17' E 014°22'0 0.0
2015-Aug-12 15:31N 67°17' E 014°22'0 0.0
2015-Aug-12 14:33N 67°17' E 014°22'0 0.0
2015-Aug-12 13:32N 67°17' E 014°22'0 0.0
2015-Aug-12 12:32N 67°17' E 014°22'0 0.0
2015-Aug-12 11:32N 67°17' E 014°22'0 0.0
2015-Aug-12 10:32N 67°17' E 014°22'0 0.0
2015-Aug-12 09:33N 67°17' E 014°22'0 0.0
2015-Aug-12 08:34N 67°17' E 014°22'0 0.0
2015-Aug-12 07:31N 67°17' E 014°22'0 0.0
2015-Aug-12 06:31N 67°17' E 014°22'0 0.0
2015-Aug-12 05:33N 67°17' E 014°22'0 0.0
2015-Aug-12 04:32N 67°17' E 014°22'0 0.0
2015-Aug-12 03:32N 67°17' E 014°22'0 0.0
2015-Aug-12 02:31N 67°17' E 014°22'0 0.0
2015-Aug-12 01:30N 67°17' E 014°22'0 0.0
2015-Aug-12 00:33N 67°17' E 014°22'0 0.0
2015-Aug-11 23:32N 67°17' E 014°22'0 0.0
2015-Aug-11 22:32N 67°17' E 014°22'0 0.0
2015-Aug-11 21:31N 67°17' E 014°22'0 0.0
2015-Aug-11 20:33N 67°17' E 014°22'0 0.0
2015-Aug-11 19:33N 67°17' E 014°22'0 0.0
2015-Aug-11 18:32N 67°17' E 014°22'0 0.0
2015-Aug-11 17:32N 67°17' E 014°22'0 0.0
2015-Aug-11 16:33N 67°17' E 014°22'0 0.0
2015-Aug-11 15:32N 67°17' E 014°22'0 0.0
2015-Aug-11 14:32N 67°17' E 014°22'0 0.0
2015-Aug-11 13:31N 67°17' E 014°22'0 0.0
2015-Aug-11 12:31N 67°17' E 014°22'0 0.0
2015-Aug-11 11:33N 67°17' E 014°22'0 0.0
2015-Aug-11 10:33N 67°17' E 014°22'0 0.0
2015-Aug-11 09:32N 67°17' E 014°22'0 0.0
2015-Aug-11 08:32N 67°17' E 014°22'0 0.0
2015-Aug-11 07:31N 67°17' E 014°22'0 0.0
2015-Aug-11 06:32N 67°17' E 014°22'0 0.0
2015-Aug-11 05:31N 67°17' E 014°22'0 0.0
2015-Aug-11 04:33N 67°17' E 014°22'0 0.0
2015-Aug-11 03:31N 67°17' E 014°22'0 0.0
2015-Aug-11 02:33N 67°17' E 014°22'0 0.0
2015-Aug-11 01:33N 67°17' E 014°22'0 0.0
2015-Aug-11 00:32N 67°17' E 014°22'0 0.0
2015-Aug-10 23:31N 67°17' E 014°22'0 0.0
2015-Aug-10 22:31N 67°17' E 014°22'0 0.0
2015-Aug-10 21:33N 67°17' E 014°22'0 0.0
2015-Aug-10 20:33N 67°17' E 014°22'0 0.0
2015-Aug-10 19:32N 67°17' E 014°22'0 0.0
2015-Aug-10 18:31N 67°17' E 014°22'0 0.0
2015-Aug-10 17:31N 67°17' E 014°22'0 0.0
2015-Aug-10 16:32N 67°17' E 014°22'0 0.0
2015-Aug-10 15:31N 67°17' E 014°22'0 0.0
2015-Aug-10 14:32N 67°17' E 014°22'0 0.0
2015-Aug-10 13:31N 67°17' E 014°22'0 0.0
2015-Aug-10 12:30N 67°17' E 014°22'0 0.0
2015-Aug-10 11:32N 67°17' E 014°22'0 0.0
2015-Aug-10 10:32N 67°17' E 014°22'0 0.0
2015-Aug-10 09:32N 67°17' E 014°22'0 0.0
2015-Aug-10 08:31N 67°17' E 014°22'0 0.0
2015-Aug-10 07:31N 67°17' E 014°22'0 0.0
2015-Aug-10 06:33N 67°17' E 014°22'0 0.0
2015-Aug-10 05:32N 67°17' E 014°22'0 0.0
2015-Aug-10 04:32N 67°17' E 014°22'0 0.0
2015-Aug-10 03:31N 67°17' E 014°22'0 0.0
2015-Aug-10 02:31N 67°17' E 014°22'0 0.0
2015-Aug-10 01:33N 67°17' E 014°22'0 0.0
2015-Aug-10 00:33N 67°17' E 014°22'0 0.0
2015-Aug-09 23:32N 67°17' E 014°22'0 0.0
2015-Aug-09 22:31N 67°17' E 014°22'0 0.0
2015-Aug-09 21:31N 67°17' E 014°22'0 0.0
2015-Aug-09 20:33N 67°17' E 014°22'0 0.0
2015-Aug-09 19:33N 67°17' E 014°22'0 0.0
2015-Aug-09 18:32N 67°17' E 014°22'0 0.0
2015-Aug-09 17:31N 67°17' E 014°22'0 0.0
2015-Aug-09 16:31N 67°17' E 014°22'0 0.0
2015-Aug-09 15:33N 67°17' E 014°22'0 0.0
2015-Aug-09 14:30N 67°17' E 014°22'0 0.0
2015-Aug-09 13:32N 67°17' E 014°22'0 0.0
2015-Aug-09 12:31N 67°17' E 014°22'0 0.0
2015-Aug-09 11:31N 67°17' E 014°22'0 0.0
2015-Aug-09 10:33N 67°17' E 014°22'0 0.0
2015-Aug-09 09:33N 67°17' E 014°22'0 0.0
2015-Aug-09 08:32N 67°17' E 014°22'0 0.0
2015-Aug-09 07:31N 67°17' E 014°22'0 0.0
2015-Aug-09 06:31N 67°17' E 014°22'0 0.0
2015-Aug-09 05:33N 67°17' E 014°22'0 0.0
2015-Aug-09 04:33N 67°17' E 014°22'0 0.0
2015-Aug-09 03:32N 67°17' E 014°22'0 0.0
2015-Aug-09 02:31N 67°17' E 014°22'0 0.0
2015-Aug-09 01:31N 67°17' E 014°22'0 0.0
2015-Aug-09 00:33N 67°17' E 014°22'0 0.0
2015-Aug-08 23:33N 67°17' E 014°22'0 0.0
2015-Aug-08 22:32N 67°17' E 014°22'0 0.0
2015-Aug-08 21:31N 67°17' E 014°22'0 0.0
2015-Aug-08 20:31N 67°17' E 014°22'0 0.0
2015-Aug-08 19:33N 67°17' E 014°22'0 0.0
2015-Aug-08 18:33N 67°17' E 014°22'0 0.0
2015-Aug-08 17:32N 67°17' E 014°22'0 0.0
2015-Aug-08 16:31N 67°17' E 014°22'0 0.0
2015-Aug-08 15:25N 67°17' E 014°22'0 0.0
2015-Aug-08 14:33N 67°17' E 014°22'0 0.0
2015-Aug-08 13:33N 67°17' E 014°22'0 0.0
2015-Aug-08 12:32N 67°17' E 014°22'0 0.0
2015-Aug-08 11:28N 67°17' E 014°22'0 0.0
2015-Aug-08 10:28N 67°17' E 014°22'0 0.0
2015-Aug-08 09:33N 67°17' E 014°22'0 0.0
2015-Aug-08 08:33N 67°17' E 014°22'0 0.0
2015-Aug-08 07:32N 67°17' E 014°22'0 0.0
2015-Aug-08 06:32N 67°17' E 014°22'0 0.0
2015-Aug-08 05:31N 67°17' E 014°22'0 0.0
2015-Aug-08 04:33N 67°17' E 014°22'0 0.0
2015-Aug-08 03:33N 67°17' E 014°22'0 0.0
2015-Aug-08 02:32N 67°17' E 014°22'0 0.0
2015-Aug-08 01:31N 67°17' E 014°22'0 0.0
2015-Aug-08 00:31N 67°17' E 014°22'0 0.0
2015-Aug-07 23:27N 67°17' E 014°22'0 0.0
2015-Aug-07 22:33N 67°17' E 014°22'0 0.0
2015-Aug-07 21:32N 67°17' E 014°22'0 0.0
2015-Aug-07 20:32N 67°17' E 014°22'0 0.0
2015-Aug-07 19:31N 67°17' E 014°22'0 0.0
2015-Aug-07 18:33N 67°17' E 014°22'0 0.0
2015-Aug-07 17:33N 67°17' E 014°22'0 0.0
2015-Aug-07 16:32N 67°17' E 014°22'0 0.0
2015-Aug-07 15:32N 67°17' E 014°22'0 0.0
2015-Aug-07 14:31N 67°17' E 014°22'0 0.0
2015-Aug-07 13:33N 67°17' E 014°22'0 0.0
2015-Aug-07 12:27N 67°17' E 014°22'0 0.0
2015-Aug-07 11:32N 67°17' E 014°22'0 0.0
2015-Aug-07 10:32N 67°17' E 014°22'0 0.0
2015-Aug-07 09:31N 67°17' E 014°22'0 0.0
2015-Aug-07 08:33N 67°17' E 014°22'0 0.0
2015-Aug-07 07:33N 67°17' E 014°22'0 0.0
2015-Aug-07 06:32N 67°17' E 014°22'0 0.0
2015-Aug-07 05:32N 67°17' E 014°22'0 0.0
2015-Aug-07 04:31N 67°17' E 014°22'0 0.0
2015-Aug-07 03:33N 67°17' E 014°22'0 0.0
2015-Aug-07 02:33N 67°17' E 014°22'0 0.0
2015-Aug-07 01:32N 67°17' E 014°22'0 0.0
2015-Aug-07 00:32N 67°17' E 014°22'0 0.0
2015-Aug-06 23:31N 67°17' E 014°22'0 0.0
2015-Aug-06 22:33N 67°17' E 014°22'0 0.0
2015-Aug-06 21:33N 67°17' E 014°22'0 0.0
2015-Aug-06 20:32N 67°17' E 014°22'0 0.0
2015-Aug-06 19:32N 67°17' E 014°22'0 0.0
2015-Aug-06 18:31N 67°17' E 014°22'0 0.0
2015-Aug-06 17:31N 67°17' E 014°22'0 0.0
2015-Aug-06 16:33N 67°17' E 014°22'0 0.0
2015-Aug-06 15:32N 67°17' E 014°22'0 0.0
2015-Aug-06 14:32N 67°17' E 014°22'0 0.0
2015-Aug-06 13:31N 67°17' E 014°22'0 0.0
2015-Aug-06 12:31N 67°17' E 014°22'0 0.0
2015-Aug-06 11:33N 67°17' E 014°22'0 0.0
2015-Aug-06 10:32N 67°17' E 014°22'0 0.0
2015-Aug-06 09:32N 67°17' E 014°22'0 0.0
2015-Aug-06 08:31N 67°17' E 014°22'0 0.0
2015-Aug-06 07:34N 67°17' E 014°22'0 0.0
2015-Aug-06 06:33N 67°17' E 014°22'0 0.0
2015-Aug-06 05:32N 67°17' E 014°22'0 0.0
2015-Aug-06 04:32N 67°17' E 014°22'0 0.0
2015-Aug-06 03:31N 67°17' E 014°22'0 0.0
2015-Aug-06 02:33N 67°17' E 014°22'0 0.0
2015-Aug-06 01:33N 67°17' E 014°22'0 0.0
2015-Aug-06 00:32N 67°17' E 014°22'0 0.0
2015-Aug-05 23:32N 67°17' E 014°22'0 0.0
2015-Aug-05 22:31N 67°17' E 014°22'0 0.0
2015-Aug-05 21:30N 67°17' E 014°22'0 0.0
2015-Aug-05 20:33N 67°17' E 014°22'0 0.0
2015-Aug-05 19:29N 67°17' E 014°22'0 0.0
2015-Aug-05 18:32N 67°17' E 014°22'0 0.0
2015-Aug-05 17:31N 67°17' E 014°22'0 0.0
2015-Aug-05 16:34N 67°17' E 014°22'0 0.0
2015-Aug-05 15:33N 67°17' E 014°22'0 0.0
2015-Aug-05 14:32N 67°17' E 014°22'0 0.0
2015-Aug-05 13:32N 67°17' E 014°22'0 0.0
2015-Aug-05 12:31N 67°17' E 014°22'0 0.0
2015-Aug-05 11:31N 67°17' E 014°22'0 0.0
2015-Aug-05 10:33N 67°17' E 014°22'0 0.0
2015-Aug-05 09:32N 67°17' E 014°22'0 0.0
2015-Aug-05 08:32N 67°17' E 014°22'0 0.0
2015-Aug-05 07:31N 67°17' E 014°22'0 0.0
2015-Aug-05 06:31N 67°17' E 014°22'0 0.0
2015-Aug-05 05:33N 67°17' E 014°22'0 0.0
2015-Aug-05 04:32N 67°17' E 014°22'0 0.0
2015-Aug-05 03:32N 67°17' E 014°22'0 0.0
2015-Aug-05 02:31N 67°17' E 014°22'0 0.0
2015-Aug-05 01:31N 67°17' E 014°22'0 0.0
2015-Aug-05 00:33N 67°17' E 014°22'0 0.0
2015-Aug-04 23:32N 67°17' E 014°22'0 0.0
2015-Aug-04 22:32N 67°17' E 014°22'0 0.0
2015-Aug-04 21:31N 67°17' E 014°22'0 0.0
2015-Aug-04 20:31N 67°17' E 014°22'0 0.0
2015-Aug-04 19:33N 67°17' E 014°22'0 0.0
2015-Aug-04 18:32N 67°17' E 014°22'0 0.0
2015-Aug-04 17:32N 67°17' E 014°22'0 0.0
2015-Aug-04 16:31N 67°17' E 014°22'0 0.0
2015-Aug-04 15:31N 67°17' E 014°22'0 0.0
2015-Aug-04 14:33N 67°17' E 014°22'0 0.0
2015-Aug-04 13:32N 67°17' E 014°22'0 0.0
2015-Aug-04 12:32N 67°17' E 014°22'0 0.0
2015-Aug-04 11:31N 67°17' E 014°22'0 0.0
2015-Aug-04 10:31N 67°17' E 014°22'0 0.0
2015-Aug-04 09:33N 67°17' E 014°22'0 0.0
2015-Aug-04 08:33N 67°17' E 014°22'0 0.0
2015-Aug-04 07:32N 67°17' E 014°22'0 0.0
2015-Aug-04 06:31N 67°17' E 014°22'0 0.0
2015-Aug-04 05:31N 67°17' E 014°22'0 0.0
2015-Aug-04 04:33N 67°17' E 014°22'0 0.0
2015-Aug-04 03:30N 67°17' E 014°22'0 0.0
2015-Aug-04 02:26N 67°17' E 014°22'0 0.0
2015-Aug-04 01:31N 67°17' E 014°22'0 0.0
2015-Aug-04 00:31N 67°17' E 014°22'0 0.0
2015-Aug-03 23:33N 67°17' E 014°22'0 0.0
2015-Aug-03 22:27N 67°17' E 014°22'0 0.0
2015-Aug-03 21:29N 67°17' E 014°22'0 0.0
2015-Aug-03 20:31N 67°17' E 014°22'0 0.0
2015-Aug-03 19:31N 67°17' E 014°22'0 0.0
2015-Aug-03 18:33N 67°17' E 014°22'0 0.0
2015-Aug-03 17:30N 67°17' E 014°22'  

Dump ship's entire track history